Saint Louis, MO (63141)

4:44 PM CST on February 10, 2016 (GMT -0600)
Creve Coeur | | Change Station
CLOSE
Current Station
Personal Weather Station
Location: Saint Louis, MO
Elevation: 636 ft
Nearby Weather Stations

Elev 636 ft 38.66 °N, 90.44 °W | Updated 6 seconds ago

Snow
Snow
22.1 °F
Feels Like 22 °F
N
0.0
Wind Variable Wind from SSE
Gusts 0.0 mph

Today
High -- | Low -- °F
--% Chance of Precip.
Yesterday
High -- | Low -- °F
Precip. -- in
Pressure 30.14 in
Visibility 4.0 miles
Clouds Mostly Cloudy 1500 ft
Overcast 4500 ft
Windchill 22 °F
Dew Point 15 °F
Humidity 75%
Rainfall 0.00 in
Snow Depth Not available.
6:59 AM 5:33 PM
Waxing Crescent, 7% visible
SPECI KSTL 102157Z 20005KT 4SM -SN BKN015 OVC045 M05/M09 A3014 RMK AO2 P0000
Pressure 30.14 in
Visibility 4.0 miles
Clouds Mostly Cloudy 1500 ft
Overcast 4500 ft
Windchill 22 °F
Dew Point 15 °F
Humidity 75%
Rainfall 0.00 in
Snow Depth Not available.
6:59 AM 5:33 PM
Waxing Crescent, 7% visible
SPECI KSTL 102157Z 20005KT 4SM -SN BKN015 OVC045 M05/M09 A3014 RMK AO2 P0000

10-Day Weather Forecast

Almanac

Astronomy

Feb. 10, 2016 Rise Set
Actual Time
Civil Twilight
Nautical Twilight
Astronomical Twilight
Moon
Length of Visible Light
Length of Day
Tomorrow will be .
, % of the Moon is Illuminated

Today's Extremes

State Highs State Lows

Community

WunderPhotos

Upload Photos

1,891,940 photos uploaded!

WunderBlog® & News

Nearby

Air Quality

  Air Quality AQ Index Pollutant
Not available.

Snow Depth

Station Depth Elevation

Earthquake Activity

City Distance Mag. Time & Date
Minimum magnitude displayed is 2.5.

Coastal Water Temperatures

Place Temperature

Stations

Nearby Weather Stations

Station Location Temp. Windchill Dew Point Humidity Wind Precip. Elev Updated Type
                   

Watches & Warnings

There are currently no watches in effect.